sensor_id;sensor_type;location;lat;lon;timestamp;temperature;humidity
15717;DHT22;7960;50.908;4.204;2022-10-15T00:01:11;14.40;99.90
15717;DHT22;7960;50.908;4.204;2022-10-15T00:03:39;14.30;99.90
15717;DHT22;7960;50.908;4.204;2022-10-15T00:06:08;14.30;99.90
15717;DHT22;7960;50.908;4.204;2022-10-15T00:08:35;14.30;99.90
15717;DHT22;7960;50.908;4.204;2022-10-15T00:11:05;14.10;99.90
15717;DHT22;7960;50.908;4.204;2022-10-15T00:13:32;14.10;99.90
15717;DHT22;7960;50.908;4.204;2022-10-15T00:16:01;14.20;99.90
15717;DHT22;7960;50.908;4.204;2022-10-15T00:18:27;14.20;99.90
15717;DHT22;7960;50.908;4.204;2022-10-15T00:20:55;14.10;99.90
15717;DHT22;7960;50.908;4.204;2022-10-15T00:23:21;14.10;99.90
15717;DHT22;7960;50.908;4.204;2022-10-15T00:25:48;14.10;99.90
15717;DHT22;7960;50.908;4.204;2022-10-15T00:28:15;14.10;99.90
15717;DHT22;7960;50.908;4.204;2022-10-15T00:30:42;14.10;99.90
15717;DHT22;7960;50.908;4.204;2022-10-15T00:33:10;14.10;99.90
15717;DHT22;7960;50.908;4.204;2022-10-15T00:35:37;14.10;99.90
15717;DHT22;7960;50.908;4.204;2022-10-15T00:38:03;14.10;99.90
15717;DHT22;7960;50.908;4.204;2022-10-15T00:40:30;14.20;99.90
15717;DHT22;7960;50.908;4.204;2022-10-15T00:42:57;14.20;99.90
15717;DHT22;7960;50.908;4.204;2022-10-15T00:45:24;14.20;99.90
15717;DHT22;7960;50.908;4.204;2022-10-15T00:47:52;14.20;99.90
15717;DHT22;7960;50.908;4.204;2022-10-15T00:50:22;14.10;99.90
15717;DHT22;7960;50.908;4.204;2022-10-15T00:52:59;14.20;99.90
15717;DHT22;7960;50.908;4.204;2022-10-15T00:55:28;14.20;99.90
15717;DHT22;7960;50.908;4.204;2022-10-15T00:57:58;14.10;99.90
15717;DHT22;7960;50.908;4.204;2022-10-15T01:00:26;14.10;99.90
15717;DHT22;7960;50.908;4.204;2022-10-15T01:02:53;14.00;99.90
15717;DHT22;7960;50.908;4.204;2022-10-15T01:05:22;14.00;99.90
15717;DHT22;7960;50.908;4.204;2022-10-15T01:07:50;14.00;99.90
15717;DHT22;7960;50.908;4.204;2022-10-15T01:10:17;14.00;99.90
15717;DHT22;7960;50.908;4.204;2022-10-15T01:12:52;14.00;99.90
15717;DHT22;7960;50.908;4.204;2022-10-15T01:15:25;14.00;99.90
15717;DHT22;7960;50.908;4.204;2022-10-15T01:17:56;14.10;99.90
15717;DHT22;7960;50.908;4.204;2022-10-15T01:27:05;14.10;99.90
15717;DHT22;7960;50.908;4.204;2022-10-15T01:32:34;14.00;99.90
15717;DHT22;7960;50.908;4.204;2022-10-15T01:35:08;13.90;99.90
15717;DHT22;7960;50.908;4.204;2022-10-15T01:37:43;14.00;99.90
15717;DHT22;7960;50.908;4.204;2022-10-15T01:40:15;14.00;99.90
15717;DHT22;7960;50.908;4.204;2022-10-15T01:42:49;14.00;99.90
15717;DHT22;7960;50.908;4.204;2022-10-15T01:45:21;14.00;99.90
15717;DHT22;7960;50.908;4.204;2022-10-15T01:47:54;14.10;99.90
15717;DHT22;7960;50.908;4.204;2022-10-15T01:50:23;14.00;99.90
15717;DHT22;7960;50.908;4.204;2022-10-15T01:52:51;14.00;99.90
15717;DHT22;7960;50.908;4.204;2022-10-15T01:55:21;13.90;99.90
15717;DHT22;7960;50.908;4.204;2022-10-15T01:57:49;13.80;99.90
15717;DHT22;7960;50.908;4.204;2022-10-15T02:00:16;13.90;99.90
15717;DHT22;7960;50.908;4.204;2022-10-15T02:02:43;13.90;99.90
15717;DHT22;7960;50.908;4.204;2022-10-15T02:05:15;13.90;99.90
15717;DHT22;7960;50.908;4.204;2022-10-15T02:07:48;14.00;99.90
15717;DHT22;7960;50.908;4.204;2022-10-15T02:10:22;14.00;99.90
15717;DHT22;7960;50.908;4.204;2022-10-15T02:13:01;14.00;99.90
15717;DHT22;7960;50.908;4.204;2022-10-15T02:15:34;13.90;99.90
15717;DHT22;7960;50.908;4.204;2022-10-15T02:18:04;13.90;99.90
15717;DHT22;7960;50.908;4.204;2022-10-15T02:20:42;13.90;99.90
15717;DHT22;7960;50.908;4.204;2022-10-15T02:23:14;13.90;99.90
15717;DHT22;7960;50.908;4.204;2022-10-15T02:25:44;13.70;99.90
15717;DHT22;7960;50.908;4.204;2022-10-15T02:28:13;13.80;99.90
15717;DHT22;7960;50.908;4.204;2022-10-15T02:30:43;13.90;99.90
15717;DHT22;7960;50.908;4.204;2022-10-15T02:33:11;13.90;99.90
15717;DHT22;7960;50.908;4.204;2022-10-15T02:35:41;13.90;99.90
15717;DHT22;7960;50.908;4.204;2022-10-15T02:38:12;14.00;99.90
15717;DHT22;7960;50.908;4.204;2022-10-15T02:40:42;13.90;99.90
15717;DHT22;7960;50.908;4.204;2022-10-15T02:43:12;13.90;99.90
15717;DHT22;7960;50.908;4.204;2022-10-15T02:45:40;13.90;99.90
15717;DHT22;7960;50.908;4.204;2022-10-15T02:48:07;13.80;99.90
15717;DHT22;7960;50.908;4.204;2022-10-15T02:50:34;13.80;99.90
15717;DHT22;7960;50.908;4.204;2022-10-15T02:53:02;13.80;99.90
15717;DHT22;7960;50.908;4.204;2022-10-15T02:55:29;13.80;99.90
15717;DHT22;7960;50.908;4.204;2022-10-15T02:57:56;13.80;99.90
15717;DHT22;7960;50.908;4.204;2022-10-15T03:00:23;13.80;99.90
15717;DHT22;7960;50.908;4.204;2022-10-15T03:02:50;13.70;99.90
15717;DHT22;7960;50.908;4.204;2022-10-15T03:05:17;13.70;99.90
15717;DHT22;7960;50.908;4.204;2022-10-15T03:07:43;13.70;99.90
15717;DHT22;7960;50.908;4.204;2022-10-15T03:10:12;13.70;99.90
15717;DHT22;7960;50.908;4.204;2022-10-15T03:12:38;13.80;99.90
15717;DHT22;7960;50.908;4.204;2022-10-15T03:15:06;13.80;99.90
15717;DHT22;7960;50.908;4.204;2022-10-15T03:17:33;13.80;99.90
15717;DHT22;7960;50.908;4.204;2022-10-15T03:20:00;13.90;99.90
15717;DHT22;7960;50.908;4.204;2022-10-15T03:22:27;13.80;99.90
15717;DHT22;7960;50.908;4.204;2022-10-15T03:24:54;13.70;99.90
15717;DHT22;7960;50.908;4.204;2022-10-15T03:27:22;13.70;99.90
15717;DHT22;7960;50.908;4.204;2022-10-15T03:29:49;13.70;99.90
15717;DHT22;7960;50.908;4.204;2022-10-15T03:32:15;13.80;99.90
15717;DHT22;7960;50.908;4.204;2022-10-15T03:34:42;13.80;99.90
15717;DHT22;7960;50.908;4.204;2022-10-15T03:37:09;13.70;99.90
15717;DHT22;7960;50.908;4.204;2022-10-15T03:39:36;13.80;99.90
15717;DHT22;7960;50.908;4.204;2022-10-15T03:42:03;13.80;99.90
15717;DHT22;7960;50.908;4.204;2022-10-15T03:44:31;13.80;99.90
15717;DHT22;7960;50.908;4.204;2022-10-15T03:46:58;13.80;99.90
15717;DHT22;7960;50.908;4.204;2022-10-15T03:49:25;13.70;99.90
15717;DHT22;7960;50.908;4.204;2022-10-15T03:51:52;13.70;99.90
15717;DHT22;7960;50.908;4.204;2022-10-15T03:54:19;13.70;99.90
15717;DHT22;7960;50.908;4.204;2022-10-15T03:56:45;13.60;99.90
15717;DHT22;7960;50.908;4.204;2022-10-15T03:59:12;13.60;99.90
15717;DHT22;7960;50.908;4.204;2022-10-15T04:01:42;13.60;99.90
15717;DHT22;7960;50.908;4.204;2022-10-15T04:04:10;13.60;99.90
15717;DHT22;7960;50.908;4.204;2022-10-15T04:06:37;13.60;99.90
15717;DHT22;7960;50.908;4.204;2022-10-15T04:09:04;13.60;99.90
15717;DHT22;7960;50.908;4.204;2022-10-15T04:11:31;13.60;99.90
15717;DHT22;7960;50.908;4.204;2022-10-15T04:13:57;13.60;99.90
15717;DHT22;7960;50.908;4.204;2022-10-15T04:16:24;13.60;99.90
15717;DHT22;7960;50.908;4.204;2022-10-15T04:18:52;13.60;99.90
15717;DHT22;7960;50.908;4.204;2022-10-15T04:21:19;13.70;99.90
15717;DHT22;7960;50.908;4.204;2022-10-15T04:23:46;13.70;99.90
15717;DHT22;7960;50.908;4.204;2022-10-15T04:26:13;13.70;99.90
15717;DHT22;7960;50.908;4.204;2022-10-15T04:28:40;13.60;99.90
15717;DHT22;7960;50.908;4.204;2022-10-15T04:31:07;13.70;99.90
15717;DHT22;7960;50.908;4.204;2022-10-15T04:33:34;13.60;99.90
15717;DHT22;7960;50.908;4.204;2022-10-15T04:36:04;13.70;99.90
15717;DHT22;7960;50.908;4.204;2022-10-15T04:38:31;13.70;99.90
15717;DHT22;7960;50.908;4.204;2022-10-15T04:40:59;13.80;99.90
15717;DHT22;7960;50.908;4.204;2022-10-15T04:43:27;13.60;99.90
15717;DHT22;7960;50.908;4.204;2022-10-15T04:45:56;13.60;99.90
15717;DHT22;7960;50.908;4.204;2022-10-15T04:48:23;13.50;99.90
15717;DHT22;7960;50.908;4.204;2022-10-15T04:50:50;13.50;99.90
15717;DHT22;7960;50.908;4.204;2022-10-15T04:53:18;13.50;99.90
15717;DHT22;7960;50.908;4.204;2022-10-15T04:55:45;13.50;99.90
15717;DHT22;7960;50.908;4.204;2022-10-15T04:58:12;13.60;99.90
15717;DHT22;7960;50.908;4.204;2022-10-15T05:00:39;13.50;99.90
15717;DHT22;7960;50.908;4.204;2022-10-15T05:03:06;13.50;99.90
15717;DHT22;7960;50.908;4.204;2022-10-15T05:05:33;13.50;99.90
15717;DHT22;7960;50.908;4.204;2022-10-15T05:08:00;13.60;99.90
15717;DHT22;7960;50.908;4.204;2022-10-15T05:10:28;13.50;99.90
15717;DHT22;7960;50.908;4.204;2022-10-15T05:12:55;13.50;99.90
15717;DHT22;7960;50.908;4.204;2022-10-15T05:15:22;13.50;99.90
15717;DHT22;7960;50.908;4.204;2022-10-15T05:17:48;13.40;99.90
15717;DHT22;7960;50.908;4.204;2022-10-15T05:20:15;13.40;99.90
15717;DHT22;7960;50.908;4.204;2022-10-15T05:22:42;13.50;99.90
15717;DHT22;7960;50.908;4.204;2022-10-15T05:25:09;13.40;99.90
15717;DHT22;7960;50.908;4.204;2022-10-15T05:27:37;13.40;99.90
15717;DHT22;7960;50.908;4.204;2022-10-15T05:30:05;13.30;99.90
15717;DHT22;7960;50.908;4.204;2022-10-15T05:32:31;13.30;99.90
15717;DHT22;7960;50.908;4.204;2022-10-15T05:34:59;13.30;99.90
15717;DHT22;7960;50.908;4.204;2022-10-15T05:37:25;13.30;99.90
15717;DHT22;7960;50.908;4.204;2022-10-15T05:39:52;13.30;99.90
15717;DHT22;7960;50.908;4.204;2022-10-15T05:42:19;13.30;99.90
15717;DHT22;7960;50.908;4.204;2022-10-15T05:44:47;13.30;99.90
15717;DHT22;7960;50.908;4.204;2022-10-15T05:47:14;13.30;99.90
15717;DHT22;7960;50.908;4.204;2022-10-15T05:49:41;13.30;99.90
15717;DHT22;7960;50.908;4.204;2022-10-15T05:52:07;13.30;99.90
15717;DHT22;7960;50.908;4.204;2022-10-15T05:54:34;13.40;99.90
15717;DHT22;7960;50.908;4.204;2022-10-15T05:57:01;13.30;99.90
15717;DHT22;7960;50.908;4.204;2022-10-15T05:59:28;13.30;99.90
15717;DHT22;7960;50.908;4.204;2022-10-15T06:01:56;13.20;99.90
15717;DHT22;7960;50.908;4.204;2022-10-15T06:04:23;13.20;99.90
15717;DHT22;7960;50.908;4.204;2022-10-15T06:06:50;13.30;99.90
15717;DHT22;7960;50.908;4.204;2022-10-15T06:09:17;13.30;99.90
15717;DHT22;7960;50.908;4.204;2022-10-15T06:11:44;13.40;99.90
15717;DHT22;7960;50.908;4.204;2022-10-15T06:14:11;13.40;99.90
15717;DHT22;7960;50.908;4.204;2022-10-15T06:16:37;13.40;99.90
15717;DHT22;7960;50.908;4.204;2022-10-15T06:19:05;13.50;99.90
15717;DHT22;7960;50.908;4.204;2022-10-15T06:21:32;13.40;99.90
15717;DHT22;7960;50.908;4.204;2022-10-15T06:23:59;13.50;99.90
15717;DHT22;7960;50.908;4.204;2022-10-15T06:26:26;13.50;99.90
15717;DHT22;7960;50.908;4.204;2022-10-15T06:28:53;13.50;99.90
15717;DHT22;7960;50.908;4.204;2022-10-15T06:31:19;13.40;99.90
15717;DHT22;7960;50.908;4.204;2022-10-15T06:33:46;13.50;99.90
15717;DHT22;7960;50.908;4.204;2022-10-15T06:36:14;13.60;99.90
15717;DHT22;7960;50.908;4.204;2022-10-15T06:38:41;13.60;99.90
15717;DHT22;7960;50.908;4.204;2022-10-15T06:41:09;13.60;99.90
15717;DHT22;7960;50.908;4.204;2022-10-15T06:43:36;13.60;99.90
15717;DHT22;7960;50.908;4.204;2022-10-15T06:46:04;13.60;99.90
15717;DHT22;7960;50.908;4.204;2022-10-15T06:48:31;13.60;99.90
15717;DHT22;7960;50.908;4.204;2022-10-15T06:50:59;13.60;99.90
15717;DHT22;7960;50.908;4.204;2022-10-15T06:53:28;13.70;99.90
15717;DHT22;7960;50.908;4.204;2022-10-15T06:55:56;13.80;99.90
15717;DHT22;7960;50.908;4.204;2022-10-15T06:58:23;13.80;99.90
15717;DHT22;7960;50.908;4.204;2022-10-15T07:00:50;13.80;99.90
15717;DHT22;7960;50.908;4.204;2022-10-15T07:03:17;13.80;99.90
15717;DHT22;7960;50.908;4.204;2022-10-15T07:05:44;13.80;99.90
15717;DHT22;7960;50.908;4.204;2022-10-15T07:08:11;13.90;99.90
15717;DHT22;7960;50.908;4.204;2022-10-15T07:10:39;13.80;99.90
15717;DHT22;7960;50.908;4.204;2022-10-15T07:13:05;13.90;99.90
15717;DHT22;7960;50.908;4.204;2022-10-15T07:15:32;13.90;99.90
15717;DHT22;7960;50.908;4.204;2022-10-15T07:17:59;13.90;99.90
15717;DHT22;7960;50.908;4.204;2022-10-15T07:20:27;13.90;99.90
15717;DHT22;7960;50.908;4.204;2022-10-15T07:22:55;13.90;99.90
15717;DHT22;7960;50.908;4.204;2022-10-15T07:25:23;13.90;99.90
15717;DHT22;7960;50.908;4.204;2022-10-15T07:27:51;14.00;99.90
15717;DHT22;7960;50.908;4.204;2022-10-15T07:30:20;14.00;99.90
15717;DHT22;7960;50.908;4.204;2022-10-15T07:32:47;14.00;99.90
15717;DHT22;7960;50.908;4.204;2022-10-15T07:35:14;14.00;99.90
15717;DHT22;7960;50.908;4.204;2022-10-15T07:37:41;14.00;99.90
15717;DHT22;7960;50.908;4.204;2022-10-15T07:40:08;13.90;99.90
15717;DHT22;7960;50.908;4.204;2022-10-15T07:42:35;14.00;99.90
15717;DHT22;7960;50.908;4.204;2022-10-15T07:45:05;14.00;99.90
15717;DHT22;7960;50.908;4.204;2022-10-15T07:47:32;14.00;99.90
15717;DHT22;7960;50.908;4.204;2022-10-15T07:49:58;14.00;99.90
15717;DHT22;7960;50.908;4.204;2022-10-15T07:52:25;14.00;99.90
15717;DHT22;7960;50.908;4.204;2022-10-15T07:54:52;14.10;99.90
15717;DHT22;7960;50.908;4.204;2022-10-15T07:57:22;14.10;99.90
15717;DHT22;7960;50.908;4.204;2022-10-15T07:59:49;14.10;99.90
15717;DHT22;7960;50.908;4.204;2022-10-15T08:02:19;14.10;99.90
15717;DHT22;7960;50.908;4.204;2022-10-15T08:04:47;14.10;99.90
15717;DHT22;7960;50.908;4.204;2022-10-15T08:07:14;14.10;99.90
15717;DHT22;7960;50.908;4.204;2022-10-15T08:09:40;14.10;99.90
15717;DHT22;7960;50.908;4.204;2022-10-15T08:12:07;14.20;99.90
15717;DHT22;7960;50.908;4.204;2022-10-15T08:14:35;14.20;99.90
15717;DHT22;7960;50.908;4.204;2022-10-15T08:17:03;14.20;99.90
15717;DHT22;7960;50.908;4.204;2022-10-15T08:19:32;14.30;99.90
15717;DHT22;7960;50.908;4.204;2022-10-15T08:21:58;14.30;99.90
15717;DHT22;7960;50.908;4.204;2022-10-15T08:24:26;14.30;99.90
15717;DHT22;7960;50.908;4.204;2022-10-15T08:26:56;14.40;99.90
15717;DHT22;7960;50.908;4.204;2022-10-15T08:29:24;14.40;99.90
15717;DHT22;7960;50.908;4.204;2022-10-15T08:31:53;14.40;99.90
15717;DHT22;7960;50.908;4.204;2022-10-15T08:34:24;14.50;99.90
15717;DHT22;7960;50.908;4.204;2022-10-15T08:36:53;14.50;99.90
15717;DHT22;7960;50.908;4.204;2022-10-15T08:39:22;14.60;99.90
15717;DHT22;7960;50.908;4.204;2022-10-15T08:41:52;14.60;99.90
15717;DHT22;7960;50.908;4.204;2022-10-15T08:44:22;14.70;99.90
15717;DHT22;7960;50.908;4.204;2022-10-15T08:46:53;14.70;99.90
15717;DHT22;7960;50.908;4.204;2022-10-15T08:49:32;14.70;99.90
15717;DHT22;7960;50.908;4.204;2022-10-15T08:52:17;14.80;99.90
15717;DHT22;7960;50.908;4.204;2022-10-15T08:54:46;14.80;99.90
15717;DHT22;7960;50.908;4.204;2022-10-15T08:57:20;14.90;99.90
15717;DHT22;7960;50.908;4.204;2022-10-15T08:59:54;14.90;99.90
15717;DHT22;7960;50.908;4.204;2022-10-15T09:02:29;15.00;99.90
15717;DHT22;7960;50.908;4.204;2022-10-15T09:05:04;15.00;99.90
15717;DHT22;7960;50.908;4.204;2022-10-15T09:07:38;15.10;99.90
15717;DHT22;7960;50.908;4.204;2022-10-15T09:10:14;15.10;99.90
15717;DHT22;7960;50.908;4.204;2022-10-15T09:12:47;15.10;99.90
15717;DHT22;7960;50.908;4.204;2022-10-15T09:15:20;15.20;99.90
15717;DHT22;7960;50.908;4.204;2022-10-15T09:17:50;15.20;99.90
15717;DHT22;7960;50.908;4.204;2022-10-15T09:20:21;15.30;99.90
15717;DHT22;7960;50.908;4.204;2022-10-15T09:23:08;15.30;99.90
15717;DHT22;7960;50.908;4.204;2022-10-15T09:25:40;15.30;99.90
15717;DHT22;7960;50.908;4.204;2022-10-15T09:28:15;15.40;99.90
15717;DHT22;7960;50.908;4.204;2022-10-15T09:30:47;15.50;99.90
15717;DHT22;7960;50.908;4.204;2022-10-15T09:33:30;15.50;99.90
15717;DHT22;7960;50.908;4.204;2022-10-15T09:36:04;15.60;99.90
15717;DHT22;7960;50.908;4.204;2022-10-15T09:38:53;15.60;99.90
15717;DHT22;7960;50.908;4.204;2022-10-15T09:41:28;15.60;99.90
15717;DHT22;7960;50.908;4.204;2022-10-15T09:43:59;15.70;99.90
15717;DHT22;7960;50.908;4.204;2022-10-15T09:46:26;15.70;99.90
15717;DHT22;7960;50.908;4.204;2022-10-15T09:49:01;15.80;99.90
15717;DHT22;7960;50.908;4.204;2022-10-15T09:51:31;15.80;99.90
15717;DHT22;7960;50.908;4.204;2022-10-15T09:54:11;15.90;99.90
15717;DHT22;7960;50.908;4.204;2022-10-15T09:56:44;16.00;99.90
15717;DHT22;7960;50.908;4.204;2022-10-15T09:59:15;16.00;99.90
15717;DHT22;7960;50.908;4.204;2022-10-15T10:01:55;16.00;99.90
15717;DHT22;7960;50.908;4.204;2022-10-15T10:04:25;16.10;99.90
15717;DHT22;7960;50.908;4.204;2022-10-15T10:06:54;16.10;99.90
15717;DHT22;7960;50.908;4.204;2022-10-15T10:09:25;16.20;99.90
15717;DHT22;7960;50.908;4.204;2022-10-15T10:11:58;16.20;99.90
15717;DHT22;7960;50.908;4.204;2022-10-15T10:14:28;16.20;99.90
15717;DHT22;7960;50.908;4.204;2022-10-15T10:17:15;16.30;99.90
15717;DHT22;7960;50.908;4.204;2022-10-15T10:19:42;16.40;99.90
15717;DHT22;7960;50.908;4.204;2022-10-15T10:22:15;16.40;99.90
15717;DHT22;7960;50.908;4.204;2022-10-15T10:24:44;16.40;99.90
15717;DHT22;7960;50.908;4.204;2022-10-15T10:27:23;16.40;99.90
15717;DHT22;7960;50.908;4.204;2022-10-15T10:29:59;16.50;99.90
15717;DHT22;7960;50.908;4.204;2022-10-15T10:32:28;16.50;99.90
15717;DHT22;7960;50.908;4.204;2022-10-15T10:34:56;16.60;99.90
15717;DHT22;7960;50.908;4.204;2022-10-15T10:37:23;16.60;99.90
15717;DHT22;7960;50.908;4.204;2022-10-15T10:39:53;16.60;99.90
15717;DHT22;7960;50.908;4.204;2022-10-15T10:42:41;16.70;99.90
15717;DHT22;7960;50.908;4.204;2022-10-15T10:45:19;16.70;99.90
15717;DHT22;7960;50.908;4.204;2022-10-15T10:47:47;16.70;99.90
15717;DHT22;7960;50.908;4.204;2022-10-15T10:50:32;16.80;99.90
15717;DHT22;7960;50.908;4.204;2022-10-15T10:53:18;16.80;99.90
15717;DHT22;7960;50.908;4.204;2022-10-15T10:55:47;16.80;99.90
15717;DHT22;7960;50.908;4.204;2022-10-15T10:58:18;16.80;99.90
15717;DHT22;7960;50.908;4.204;2022-10-15T11:00:46;16.90;99.90
15717;DHT22;7960;50.908;4.204;2022-10-15T11:03:20;17.00;99.90
15717;DHT22;7960;50.908;4.204;2022-10-15T11:05:49;17.20;99.90
15717;DHT22;7960;50.908;4.204;2022-10-15T11:08:30;17.50;99.90
15717;DHT22;7960;50.908;4.204;2022-10-15T11:11:06;17.60;99.90
15717;DHT22;7960;50.908;4.204;2022-10-15T11:13:51;17.70;99.90
15717;DHT22;7960;50.908;4.204;2022-10-15T11:16:28;17.70;99.90
15717;DHT22;7960;50.908;4.204;2022-10-15T11:19:14;17.70;99.90
15717;DHT22;7960;50.908;4.204;2022-10-15T11:21:53;17.60;99.90
15717;DHT22;7960;50.908;4.204;2022-10-15T11:24:30;17.70;99.90
15717;DHT22;7960;50.908;4.204;2022-10-15T11:27:14;17.70;99.90
15717;DHT22;7960;50.908;4.204;2022-10-15T11:29:52;17.80;99.90
15717;DHT22;7960;50.908;4.204;2022-10-15T11:32:38;17.80;99.90
15717;DHT22;7960;50.908;4.204;2022-10-15T11:35:22;17.90;99.90
15717;DHT22;7960;50.908;4.204;2022-10-15T11:38:01;18.10;99.90
15717;DHT22;7960;50.908;4.204;2022-10-15T11:40:37;18.20;99.90
15717;DHT22;7960;50.908;4.204;2022-10-15T11:43:30;18.20;99.90
15717;DHT22;7960;50.908;4.204;2022-10-15T11:46:03;18.20;99.90
15717;DHT22;7960;50.908;4.204;2022-10-15T11:48:44;18.10;99.90
15717;DHT22;7960;50.908;4.204;2022-10-15T11:51:19;18.10;99.90
15717;DHT22;7960;50.908;4.204;2022-10-15T11:54:08;18.00;99.90
15717;DHT22;7960;50.908;4.204;2022-10-15T11:56:42;17.90;99.90
15717;DHT22;7960;50.908;4.204;2022-10-15T11:59:21;17.80;99.90
15717;DHT22;7960;50.908;4.204;2022-10-15T12:01:58;17.80;99.90
15717;DHT22;7960;50.908;4.204;2022-10-15T12:04:31;17.80;99.90
15717;DHT22;7960;50.908;4.204;2022-10-15T12:07:02;17.70;99.90
15717;DHT22;7960;50.908;4.204;2022-10-15T12:09:33;17.60;99.90
15717;DHT22;7960;50.908;4.204;2022-10-15T12:12:04;17.60;99.90
15717;DHT22;7960;50.908;4.204;2022-10-15T12:14:38;17.50;99.90
15717;DHT22;7960;50.908;4.204;2022-10-15T12:17:15;17.40;99.90
15717;DHT22;7960;50.908;4.204;2022-10-15T12:19:49;17.30;99.90
15717;DHT22;7960;50.908;4.204;2022-10-15T12:22:34;17.20;99.90
15717;DHT22;7960;50.908;4.204;2022-10-15T12:25:02;17.30;99.90
15717;DHT22;7960;50.908;4.204;2022-10-15T12:27:32;17.40;99.90
15717;DHT22;7960;50.908;4.204;2022-10-15T12:30:20;17.70;99.90
15717;DHT22;7960;50.908;4.204;2022-10-15T12:32:49;17.80;99.90
15717;DHT22;7960;50.908;4.204;2022-10-15T12:35:33;17.80;99.90
15717;DHT22;7960;50.908;4.204;2022-10-15T12:38:26;17.70;99.90
15717;DHT22;7960;50.908;4.204;2022-10-15T12:40:58;17.60;99.90
15717;DHT22;7960;50.908;4.204;2022-10-15T12:43:26;17.60;99.90
15717;DHT22;7960;50.908;4.204;2022-10-15T12:45:56;17.70;99.90
15717;DHT22;7960;50.908;4.204;2022-10-15T12:48:35;17.60;99.90
15717;DHT22;7960;50.908;4.204;2022-10-15T12:51:35;18.00;99.90
15717;DHT22;7960;50.908;4.204;2022-10-15T12:54:32;18.50;99.90
15717;DHT22;7960;50.908;4.204;2022-10-15T12:56:59;18.50;99.90
15717;DHT22;7960;50.908;4.204;2022-10-15T12:59:30;18.40;99.90
15717;DHT22;7960;50.908;4.204;2022-10-15T13:02:37;18.40;99.90
15717;DHT22;7960;50.908;4.204;2022-10-15T13:05:06;18.60;99.90
15717;DHT22;7960;50.908;4.204;2022-10-15T13:07:37;18.40;99.90
15717;DHT22;7960;50.908;4.204;2022-10-15T13:10:18;18.30;99.90
15717;DHT22;7960;50.908;4.204;2022-10-15T13:12:50;18.40;99.90
15717;DHT22;7960;50.908;4.204;2022-10-15T13:15:17;18.50;99.90
15717;DHT22;7960;50.908;4.204;2022-10-15T13:17:46;18.60;99.90
15717;DHT22;7960;50.908;4.204;2022-10-15T13:20:28;18.70;99.90
15717;DHT22;7960;50.908;4.204;2022-10-15T13:23:06;18.70;99.90
15717;DHT22;7960;50.908;4.204;2022-10-15T13:25:33;18.70;99.90
15717;DHT22;7960;50.908;4.204;2022-10-15T13:28:00;18.60;99.90
15717;DHT22;7960;50.908;4.204;2022-10-15T13:30:27;18.50;99.90
15717;DHT22;7960;50.908;4.204;2022-10-15T13:32:55;18.40;99.90
15717;DHT22;7960;50.908;4.204;2022-10-15T13:35:24;18.60;99.90
15717;DHT22;7960;50.908;4.204;2022-10-15T13:37:54;18.60;99.90
15717;DHT22;7960;50.908;4.204;2022-10-15T13:40:23;18.60;99.90
15717;DHT22;7960;50.908;4.204;2022-10-15T13:42:57;18.60;99.90
15717;DHT22;7960;50.908;4.204;2022-10-15T13:45:25;18.90;99.90
15717;DHT22;7960;50.908;4.204;2022-10-15T13:47:52;19.20;99.90
15717;DHT22;7960;50.908;4.204;2022-10-15T13:50:23;19.80;99.90
15717;DHT22;7960;50.908;4.204;2022-10-15T13:52:54;20.20;99.90
15717;DHT22;7960;50.908;4.204;2022-10-15T13:55:24;20.60;99.90
15717;DHT22;7960;50.908;4.204;2022-10-15T13:57:57;20.80;99.90
15717;DHT22;7960;50.908;4.204;2022-10-15T14:00:27;21.20;99.90
15717;DHT22;7960;50.908;4.204;2022-10-15T14:03:14;21.60;99.90
15717;DHT22;7960;50.908;4.204;2022-10-15T14:05:44;22.20;99.90
15717;DHT22;7960;50.908;4.204;2022-10-15T14:08:16;21.90;99.90
15717;DHT22;7960;50.908;4.204;2022-10-15T14:10:43;21.90;99.90
15717;DHT22;7960;50.908;4.204;2022-10-15T14:13:10;22.30;99.90
15717;DHT22;7960;50.908;4.204;2022-10-15T14:15:42;22.30;99.90
15717;DHT22;7960;50.908;4.204;2022-10-15T14:18:10;22.50;99.90
15717;DHT22;7960;50.908;4.204;2022-10-15T14:20:44;22.50;99.90
15717;DHT22;7960;50.908;4.204;2022-10-15T14:23:22;21.90;99.90
15717;DHT22;7960;50.908;4.204;2022-10-15T14:25:54;21.90;99.90
15717;DHT22;7960;50.908;4.204;2022-10-15T14:28:22;22.20;99.90
15717;DHT22;7960;50.908;4.204;2022-10-15T14:30:50;22.00;99.90
15717;DHT22;7960;50.908;4.204;2022-10-15T14:33:40;21.90;99.90
15717;DHT22;7960;50.908;4.204;2022-10-15T14:36:13;22.20;99.90
15717;DHT22;7960;50.908;4.204;2022-10-15T14:38:40;21.80;99.20
15717;DHT22;7960;50.908;4.204;2022-10-15T14:41:21;21.60;99.80
15717;DHT22;7960;50.908;4.204;2022-10-15T14:44:00;21.30;99.90
15717;DHT22;7960;50.908;4.204;2022-10-15T14:46:33;21.90;99.90
15717;DHT22;7960;50.908;4.204;2022-10-15T14:49:01;22.20;99.00
15717;DHT22;7960;50.908;4.204;2022-10-15T14:51:30;21.80;99.00
15717;DHT22;7960;50.908;4.204;2022-10-15T14:53:57;21.00;99.80
15717;DHT22;7960;50.908;4.204;2022-10-15T14:56:30;20.20;99.90
15717;DHT22;7960;50.908;4.204;2022-10-15T14:58:59;19.70;99.90
15717;DHT22;7960;50.908;4.204;2022-10-15T15:01:26;19.30;99.90
15717;DHT22;7960;50.908;4.204;2022-10-15T15:03:56;19.20;99.90
15717;DHT22;7960;50.908;4.204;2022-10-15T15:06:23;19.00;99.90
15717;DHT22;7960;50.908;4.204;2022-10-15T15:08:51;19.00;99.90
15717;DHT22;7960;50.908;4.204;2022-10-15T15:11:21;19.00;99.90
15717;DHT22;7960;50.908;4.204;2022-10-15T15:13:48;18.80;99.90
15717;DHT22;7960;50.908;4.204;2022-10-15T15:16:17;18.90;99.90
15717;DHT22;7960;50.908;4.204;2022-10-15T15:18:44;18.90;99.90
15717;DHT22;7960;50.908;4.204;2022-10-15T15:21:14;19.10;99.90
15717;DHT22;7960;50.908;4.204;2022-10-15T15:23:42;19.10;99.90
15717;DHT22;7960;50.908;4.204;2022-10-15T15:26:11;19.00;99.90
15717;DHT22;7960;50.908;4.204;2022-10-15T15:28:38;19.00;99.90
15717;DHT22;7960;50.908;4.204;2022-10-15T15:31:06;18.80;99.90
15717;DHT22;7960;50.908;4.204;2022-10-15T15:33:34;18.60;99.90
15717;DHT22;7960;50.908;4.204;2022-10-15T15:36:02;18.40;99.90
15717;DHT22;7960;50.908;4.204;2022-10-15T15:38:30;18.30;99.90
15717;DHT22;7960;50.908;4.204;2022-10-15T15:41:00;18.30;99.90
15717;DHT22;7960;50.908;4.204;2022-10-15T15:43:30;18.20;99.90
15717;DHT22;7960;50.908;4.204;2022-10-15T15:45:57;18.20;99.90
15717;DHT22;7960;50.908;4.204;2022-10-15T15:48:24;18.10;99.90
15717;DHT22;7960;50.908;4.204;2022-10-15T15:50:51;17.90;99.90
15717;DHT22;7960;50.908;4.204;2022-10-15T15:53:18;17.90;99.90
15717;DHT22;7960;50.908;4.204;2022-10-15T15:55:45;17.80;99.90
15717;DHT22;7960;50.908;4.204;2022-10-15T15:58:11;17.90;99.90
15717;DHT22;7960;50.908;4.204;2022-10-15T16:00:40;17.80;99.90
15717;DHT22;7960;50.908;4.204;2022-10-15T16:03:08;17.70;99.90
15717;DHT22;7960;50.908;4.204;2022-10-15T16:05:37;17.70;99.90
15717;DHT22;7960;50.908;4.204;2022-10-15T16:08:05;17.70;99.90
15717;DHT22;7960;50.908;4.204;2022-10-15T16:10:32;17.60;99.90
15717;DHT22;7960;50.908;4.204;2022-10-15T16:12:59;17.60;99.90
15717;DHT22;7960;50.908;4.204;2022-10-15T16:15:26;17.60;99.90